createdAt,value
2018-03-26T00:02:20.399Z,82.80
2018-03-26T00:04:48.021Z,82.90
2018-03-26T00:07:15.562Z,83.00
2018-03-26T00:09:43.153Z,83.10
2018-03-26T00:12:10.758Z,83.40
2018-03-26T00:14:38.368Z,83.10
2018-03-26T00:17:05.913Z,83.20
2018-03-26T00:19:33.488Z,83.60
2018-03-26T00:22:01.075Z,83.50
2018-03-26T00:24:28.692Z,83.40
2018-03-26T00:26:56.300Z,83.60
2018-03-26T00:29:23.894Z,83.80
2018-03-26T00:31:51.542Z,84.00
2018-03-26T00:34:19.082Z,84.20
2018-03-26T00:36:46.693Z,84.40
2018-03-26T00:39:14.266Z,84.50
2018-03-26T00:41:41.854Z,84.50
2018-03-26T00:44:09.459Z,84.00
2018-03-26T00:46:37.104Z,84.30
2018-03-26T00:49:04.670Z,84.30
2018-03-26T00:51:32.269Z,85.00
2018-03-26T00:53:59.858Z,85.20
2018-03-26T00:56:27.470Z,85.20
2018-03-26T00:58:55.010Z,85.60
2018-03-26T01:01:22.574Z,85.80
2018-03-26T01:03:50.183Z,85.40
2018-03-26T01:06:17.785Z,85.20
2018-03-26T01:08:45.340Z,85.60
2018-03-26T01:11:12.944Z,85.60
2018-03-26T01:13:40.517Z,85.50
2018-03-26T01:16:08.126Z,85.60
2018-03-26T01:18:35.725Z,86.20
2018-03-26T01:21:03.737Z,86.30
2018-03-26T01:23:31.311Z,86.30
2018-03-26T01:25:58.962Z,86.30
2018-03-26T01:28:26.524Z,86.30
2018-03-26T01:30:54.116Z,86.30
2018-03-26T01:33:21.759Z,86.40
2018-03-26T01:35:49.497Z,86.30
2018-03-26T01:38:17.095Z,86.20
2018-03-26T01:40:44.695Z,86.20
2018-03-26T01:43:12.290Z,85.90
2018-03-26T01:45:39.862Z,85.90
2018-03-26T01:48:07.515Z,86.00
2018-03-26T01:50:35.113Z,86.00
2018-03-26T01:53:02.746Z,85.80
2018-03-26T01:55:30.348Z,85.80
2018-03-26T01:57:57.953Z,85.70
2018-03-26T02:00:25.541Z,85.70
2018-03-26T02:02:53.159Z,85.50
2018-03-26T02:05:20.728Z,85.30
2018-03-26T02:07:48.359Z,85.40
2018-03-26T02:10:15.924Z,85.40
2018-03-26T02:12:43.531Z,84.90
2018-03-26T02:15:11.123Z,85.10
2018-03-26T02:17:38.749Z,85.40
2018-03-26T02:20:06.356Z,85.50
2018-03-26T02:22:33.958Z,85.80
2018-03-26T02:25:01.528Z,85.80
2018-03-26T02:27:29.346Z,85.80
2018-03-26T02:29:56.916Z,85.60
2018-03-26T02:32:24.663Z,85.80
2018-03-26T02:34:52.243Z,85.70
2018-03-26T02:37:19.885Z,85.70
2018-03-26T02:39:47.851Z,85.70
2018-03-26T02:42:15.464Z,85.60
2018-03-26T02:44:43.071Z,85.70
2018-03-26T02:47:10.695Z,85.80
2018-03-26T02:49:38.307Z,85.80
2018-03-26T02:52:05.911Z,85.80
2018-03-26T02:54:33.520Z,86.30
2018-03-26T02:57:01.080Z,86.20
2018-03-26T02:59:28.690Z,86.00
2018-03-26T03:01:56.262Z,86.30
2018-03-26T03:04:23.863Z,86.30
2018-03-26T03:06:51.434Z,86.00
2018-03-26T03:09:19.043Z,85.70
2018-03-26T03:11:46.640Z,85.90
2018-03-26T03:14:14.290Z,86.00
2018-03-26T03:16:41.839Z,85.80
2018-03-26T03:19:09.481Z,85.70
2018-03-26T03:21:37.092Z,85.90
2018-03-26T03:24:04.678Z,85.80
2018-03-26T03:26:32.276Z,85.70
2018-03-26T03:28:59.877Z,85.70
2018-03-26T03:31:27.469Z,85.60
2018-03-26T03:33:55.068Z,85.60
2018-03-26T03:36:22.652Z,85.70
2018-03-26T03:38:50.445Z,85.60
2018-03-26T03:41:18.007Z,85.50
2018-03-26T03:43:45.681Z,85.40
2018-03-26T03:46:13.235Z,85.50
2018-03-26T03:48:40.848Z,85.60
2018-03-26T03:51:08.496Z,86.00
2018-03-26T03:53:36.123Z,86.00
2018-03-26T03:56:03.761Z,85.90
2018-03-26T03:58:31.342Z,85.80
2018-03-26T04:00:58.968Z,85.90
2018-03-26T04:03:26.523Z,85.80
2018-03-26T04:05:54.159Z,85.90
2018-03-26T04:08:21.764Z,86.00
2018-03-26T04:10:49.408Z,86.20
2018-03-26T04:13:16.986Z,86.40
2018-03-26T04:15:44.587Z,86.50
2018-03-26T04:18:12.151Z,86.60
2018-03-26T04:20:39.738Z,86.40
2018-03-26T04:23:07.339Z,86.40
2018-03-26T04:25:34.949Z,86.30
2018-03-26T04:28:02.546Z,86.40
2018-03-26T04:30:30.157Z,86.40
2018-03-26T04:32:57.771Z,86.40
2018-03-26T04:35:25.414Z,86.40
2018-03-26T04:37:52.976Z,86.30
2018-03-26T04:40:20.580Z,86.20
2018-03-26T04:42:48.152Z,86.20
2018-03-26T04:45:16.146Z,86.00
2018-03-26T04:47:43.716Z,86.00
2018-03-26T04:50:11.348Z,85.90
2018-03-26T04:52:38.935Z,85.90
2018-03-26T04:55:06.713Z,85.80
2018-03-26T04:57:34.307Z,85.80
2018-03-26T05:00:01.908Z,85.80
2018-03-26T05:02:29.471Z,85.70
2018-03-26T05:04:57.085Z,85.60
2018-03-26T05:07:24.637Z,85.60
2018-03-26T05:09:52.228Z,85.50
2018-03-26T05:12:19.783Z,85.40
2018-03-26T05:14:47.716Z,85.00
2018-03-26T05:17:15.392Z,85.00
2018-03-26T05:19:42.922Z,84.90
2018-03-26T05:22:10.479Z,85.20
2018-03-26T05:24:38.021Z,85.30
2018-03-26T05:27:05.594Z,85.40
2018-03-26T05:29:33.187Z,85.40
2018-03-26T05:32:00.838Z,85.30
2018-03-26T05:34:28.561Z,85.20
2018-03-26T05:36:56.197Z,85.10
2018-03-26T05:39:23.783Z,85.30
2018-03-26T05:41:51.386Z,85.30
2018-03-26T05:44:18.993Z,85.20
2018-03-26T05:46:46.584Z,85.10
2018-03-26T05:49:14.138Z,85.10
2018-03-26T05:51:41.764Z,85.00
2018-03-26T05:54:09.367Z,85.20
2018-03-26T05:56:36.963Z,85.30
2018-03-26T05:59:04.591Z,85.40
2018-03-26T06:01:32.200Z,85.50
2018-03-26T06:03:59.762Z,85.50
2018-03-26T06:06:27.383Z,85.50
2018-03-26T06:08:54.974Z,85.30
2018-03-26T06:11:22.560Z,85.40
2018-03-26T06:13:50.149Z,85.40
2018-03-26T06:16:17.758Z,85.30
2018-03-26T06:18:45.352Z,85.00
2018-03-26T06:21:12.976Z,85.30
2018-03-26T06:23:40.563Z,85.30
2018-03-26T06:26:08.127Z,85.20
2018-03-26T06:28:35.758Z,85.10
2018-03-26T06:31:03.367Z,85.00
2018-03-26T06:33:31.355Z,84.40
2018-03-26T06:35:58.953Z,84.40
2018-03-26T06:38:32.130Z,84.30
2018-03-26T06:40:59.708Z,84.40
2018-03-26T06:43:27.308Z,84.10
2018-03-26T06:45:54.937Z,84.00
2018-03-26T06:48:22.527Z,83.50
2018-03-26T06:50:50.333Z,83.10
2018-03-26T06:53:18.151Z,82.90
2018-03-26T06:55:46.755Z,82.70
2018-03-26T06:58:14.377Z,82.70
2018-03-26T07:00:41.993Z,82.30
2018-03-26T07:03:09.579Z,82.00
2018-03-26T07:05:37.525Z,81.50
2018-03-26T07:08:06.763Z,81.40
2018-03-26T07:10:35.553Z,81.60
2018-03-26T07:13:04.440Z,81.60
2018-03-26T07:15:34.793Z,81.70
2018-03-26T07:18:03.768Z,81.90
2018-03-26T07:20:32.501Z,81.50
2018-03-26T07:23:12.874Z,81.40
2018-03-26T07:25:41.181Z,80.90
2018-03-26T07:28:09.459Z,81.50
2018-03-26T07:30:38.605Z,81.50
2018-03-26T07:33:06.471Z,81.10
2018-03-26T07:35:34.084Z,81.30
2018-03-26T07:38:01.677Z,81.30
2018-03-26T07:40:29.273Z,81.30
2018-03-26T07:42:56.859Z,81.50
2018-03-26T07:45:24.463Z,81.60
2018-03-26T07:47:52.046Z,81.90
2018-03-26T07:50:19.658Z,81.50
2018-03-26T07:52:47.276Z,81.30
2018-03-26T07:55:15.290Z,81.20
2018-03-26T07:57:42.878Z,81.20
2018-03-26T08:00:10.844Z,81.20
2018-03-26T08:02:38.490Z,81.30
2018-03-26T08:05:06.096Z,80.00
2018-03-26T08:07:33.687Z,79.80
2018-03-26T08:10:01.289Z,78.30
2018-03-26T08:12:28.927Z,78.90
2018-03-26T08:14:56.519Z,78.80
2018-03-26T08:17:24.148Z,79.30
2018-03-26T08:19:58.316Z,79.30
2018-03-26T08:22:26.338Z,77.80
2018-03-26T08:24:53.965Z,77.80
2018-03-26T08:27:23.756Z,77.00
2018-03-26T08:29:51.732Z,77.80
2018-03-26T08:32:19.305Z,77.00
2018-03-26T08:34:46.938Z,77.40
2018-03-26T08:37:14.533Z,76.90
2018-03-26T08:39:42.168Z,76.60
2018-03-26T08:42:09.854Z,76.60
2018-03-26T08:44:41.453Z,76.40
2018-03-26T08:47:09.032Z,74.40
2018-03-26T08:49:41.564Z,72.00
2018-03-26T08:52:09.177Z,72.30
2018-03-26T08:54:40.425Z,73.50
2018-03-26T08:57:09.064Z,74.20
2018-03-26T08:59:36.678Z,73.80
2018-03-26T09:02:04.272Z,74.00
2018-03-26T09:04:34.080Z,73.80
2018-03-26T09:07:01.656Z,73.40
2018-03-26T09:09:29.496Z,72.70
2018-03-26T09:11:59.245Z,73.10
2018-03-26T09:14:26.808Z,73.10
2018-03-26T09:16:55.346Z,73.00
2018-03-26T09:19:23.107Z,72.70
2018-03-26T09:21:50.712Z,71.90
2018-03-26T09:24:18.301Z,72.20
2018-03-26T09:26:46.044Z,71.70
2018-03-26T09:29:13.646Z,70.80
2018-03-26T09:31:41.873Z,70.10
2018-03-26T09:34:09.692Z,69.50
2018-03-26T09:36:37.753Z,68.90
2018-03-26T09:39:05.516Z,70.00
2018-03-26T09:41:33.436Z,70.00
2018-03-26T09:44:02.161Z,70.90
2018-03-26T09:46:29.807Z,71.00
2018-03-26T09:48:57.385Z,70.50
2018-03-26T09:51:25.008Z,69.30
2018-03-26T09:53:53.014Z,67.10
2018-03-26T09:56:21.104Z,67.10
2018-03-26T09:58:49.176Z,67.80
2018-03-26T10:01:22.677Z,68.50
2018-03-26T10:03:50.943Z,68.80
2018-03-26T10:06:18.586Z,67.60
2018-03-26T10:08:46.203Z,66.20
2018-03-26T10:11:13.862Z,67.40
2018-03-26T10:13:41.468Z,68.40
2018-03-26T10:16:09.079Z,65.80
2018-03-26T10:18:36.684Z,64.80
2018-03-26T10:21:04.284Z,66.40
2018-03-26T10:23:31.890Z,67.10
2018-03-26T10:25:59.464Z,67.30
2018-03-26T10:28:27.935Z,67.40
2018-03-26T10:30:55.518Z,67.40
2018-03-26T10:33:23.080Z,68.30
2018-03-26T10:35:51.434Z,67.70
2018-03-26T10:38:19.505Z,67.90
2018-03-26T10:40:47.267Z,68.00
2018-03-26T10:43:15.289Z,67.80
2018-03-26T10:45:42.943Z,67.70
2018-03-26T10:48:10.577Z,67.30
2018-03-26T10:50:38.187Z,68.70
2018-03-26T10:53:05.797Z,69.20
2018-03-26T10:55:33.391Z,69.70
2018-03-26T10:58:14.533Z,69.90
2018-03-26T11:00:42.215Z,69.50
2018-03-26T11:03:10.015Z,69.90
2018-03-26T11:05:37.623Z,70.00
2018-03-26T11:08:05.216Z,69.60
2018-03-26T11:10:32.791Z,70.20
2018-03-26T11:13:00.618Z,70.50
2018-03-26T11:15:28.248Z,70.10
2018-03-26T11:17:55.893Z,70.20
2018-03-26T11:20:23.487Z,70.80
2018-03-26T11:22:51.118Z,70.70
2018-03-26T11:25:18.757Z,70.00
2018-03-26T11:27:46.360Z,70.20
2018-03-26T11:30:14.014Z,69.20
2018-03-26T11:32:41.667Z,69.50
2018-03-26T11:35:09.233Z,68.50
2018-03-26T11:37:36.848Z,69.20
2018-03-26T11:40:04.421Z,68.20
2018-03-26T11:42:32.331Z,68.20
2018-03-26T11:44:59.952Z,68.30
2018-03-26T11:47:27.606Z,68.00
2018-03-26T11:49:55.206Z,68.20
2018-03-26T11:52:22.832Z,68.70
2018-03-26T11:54:50.439Z,68.40
2018-03-26T11:57:18.071Z,68.90
2018-03-26T11:59:45.650Z,69.70
2018-03-26T12:02:13.255Z,69.70
2018-03-26T12:04:40.896Z,68.60
2018-03-26T12:07:08.467Z,66.80
2018-03-26T12:09:36.067Z,67.40
2018-03-26T12:12:03.659Z,67.60
2018-03-26T12:14:31.777Z,68.70
2018-03-26T12:16:59.372Z,68.70
2018-03-26T12:19:26.991Z,69.30
2018-03-26T12:21:54.637Z,67.80
2018-03-26T12:24:33.939Z,67.10
2018-03-26T12:27:01.556Z,67.30
2018-03-26T12:29:40.880Z,67.60
2018-03-26T12:32:08.451Z,68.70
2018-03-26T12:34:47.899Z,68.90
2018-03-26T12:37:15.508Z,68.90
2018-03-26T12:39:43.123Z,68.50
2018-03-26T12:42:10.741Z,68.60
2018-03-26T12:44:50.016Z,68.40
2018-03-26T12:47:17.617Z,67.40
2018-03-26T12:49:45.238Z,66.80
2018-03-26T12:55:18.356Z,65.20
2018-03-26T12:57:57.693Z,66.80
2018-03-26T13:00:25.706Z,66.60
2018-03-26T13:02:53.331Z,66.60
2018-03-26T13:05:20.936Z,66.40
2018-03-26T13:07:48.616Z,65.30
2018-03-26T13:10:16.214Z,65.80
2018-03-26T13:12:44.169Z,65.90
2018-03-26T13:15:11.783Z,65.90
2018-03-26T13:17:39.387Z,66.60
2018-03-26T13:20:06.990Z,64.80
2018-03-26T13:22:34.583Z,65.30
2018-03-26T13:25:02.279Z,65.60
2018-03-26T13:27:29.848Z,65.30
2018-03-26T13:29:57.462Z,63.80
2018-03-26T13:32:25.070Z,64.50
2018-03-26T13:34:53.834Z,63.60
2018-03-26T13:37:21.429Z,63.60
2018-03-26T13:39:49.057Z,62.60
2018-03-26T13:42:16.659Z,62.50
2018-03-26T13:44:44.260Z,63.50
2018-03-26T13:47:11.831Z,63.60
2018-03-26T13:49:39.856Z,63.20
2018-03-26T13:52:07.447Z,63.20
2018-03-26T13:54:35.071Z,64.00
2018-03-26T13:57:02.684Z,64.10
2018-03-26T13:59:35.324Z,64.00
2018-03-26T14:02:03.064Z,65.00
2018-03-26T14:04:30.639Z,64.40
2018-03-26T14:06:58.265Z,61.90
2018-03-26T14:09:37.494Z,61.30
2018-03-26T14:12:16.929Z,62.20
2018-03-26T14:14:56.274Z,63.20
2018-03-26T14:17:35.600Z,64.40
2018-03-26T14:20:03.207Z,65.40
2018-03-26T14:22:31.143Z,65.40
2018-03-26T14:24:58.725Z,64.60
2018-03-26T14:27:26.336Z,64.80
2018-03-26T14:29:53.955Z,64.20
2018-03-26T14:32:21.582Z,63.50
2018-03-26T14:35:00.999Z,64.20
2018-03-26T14:37:28.658Z,64.50
2018-03-26T14:39:56.232Z,63.10
2018-03-26T14:42:23.812Z,63.10
2018-03-26T14:44:51.392Z,62.40
2018-03-26T14:47:19.402Z,59.60
2018-03-26T14:52:40.271Z,59.90
2018-03-26T14:55:07.929Z,60.90
2018-03-26T14:57:35.970Z,62.20
2018-03-26T15:00:03.574Z,62.20
2018-03-26T15:02:31.188Z,62.00
2018-03-26T15:04:58.844Z,62.30
2018-03-26T15:07:26.721Z,62.30
2018-03-26T15:09:54.321Z,62.30
2018-03-26T15:12:21.959Z,62.70
2018-03-26T15:14:49.522Z,63.80
2018-03-26T15:17:17.188Z,64.40
2018-03-26T15:19:44.822Z,64.10
2018-03-26T15:22:12.457Z,63.20
2018-03-26T15:24:40.028Z,62.20
2018-03-26T15:27:07.649Z,62.10
2018-03-26T15:29:35.239Z,61.60
2018-03-26T15:32:02.887Z,59.60
2018-03-26T15:34:32.031Z,59.70
2018-03-26T15:37:00.959Z,59.70
2018-03-26T15:39:29.368Z,60.50
2018-03-26T15:42:02.288Z,61.90
2018-03-26T15:44:30.015Z,62.80
2018-03-26T15:46:57.706Z,62.60
2018-03-26T15:49:26.134Z,62.50
2018-03-26T15:51:54.680Z,61.60
2018-03-26T15:54:23.216Z,58.40
2018-03-26T15:56:52.143Z,58.40
2018-03-26T15:59:20.943Z,58.50
2018-03-26T16:01:49.455Z,58.50
2018-03-26T16:04:18.239Z,57.80
2018-03-26T16:06:46.842Z,57.50
2018-03-26T16:09:15.517Z,57.70
2018-03-26T16:11:43.808Z,57.90
2018-03-26T16:14:12.351Z,59.80
2018-03-26T16:16:39.984Z,59.90
2018-03-26T16:19:08.633Z,60.10
2018-03-26T16:21:37.473Z,60.10
2018-03-26T16:24:07.313Z,60.10
2018-03-26T16:26:39.856Z,61.10
2018-03-26T16:29:09.554Z,60.70
2018-03-26T16:31:40.177Z,60.70
2018-03-26T16:34:08.623Z,61.40
2018-03-26T16:36:38.565Z,61.30
2018-03-26T16:39:07.253Z,61.30
2018-03-26T16:41:48.529Z,61.90
2018-03-26T16:44:17.202Z,62.60
2018-03-26T16:46:45.555Z,63.50
2018-03-26T16:49:13.178Z,63.60
2018-03-26T16:51:41.002Z,64.10
2018-03-26T16:54:08.638Z,64.00
2018-03-26T16:56:36.207Z,64.20
2018-03-26T16:59:03.833Z,64.60
2018-03-26T17:01:31.441Z,64.40
2018-03-26T17:03:59.024Z,65.00
2018-03-26T17:06:26.618Z,64.80
2018-03-26T17:08:54.224Z,65.80
2018-03-26T17:11:21.798Z,66.40
2018-03-26T17:13:49.441Z,66.70
2018-03-26T17:16:17.076Z,67.10
2018-03-26T17:18:44.946Z,67.30
2018-03-26T17:21:12.525Z,67.60
2018-03-26T17:23:41.142Z,67.70
2018-03-26T17:26:10.580Z,67.40
2018-03-26T17:28:38.978Z,68.00
2018-03-26T17:31:07.662Z,68.50
2018-03-26T17:33:36.325Z,69.20
2018-03-26T17:36:03.988Z,69.40
2018-03-26T17:38:33.533Z,69.80
2018-03-26T17:41:01.740Z,70.50
2018-03-26T17:43:30.481Z,70.70
2018-03-26T17:45:59.736Z,70.80
2018-03-26T17:48:27.433Z,70.80
2018-03-26T17:50:55.072Z,70.90
2018-03-26T17:53:23.337Z,71.00
2018-03-26T17:55:51.839Z,71.00
2018-03-26T17:58:19.463Z,71.10
2018-03-26T18:00:47.036Z,71.00
2018-03-26T18:03:14.591Z,71.20
2018-03-26T18:05:42.188Z,71.30
2018-03-26T18:08:09.755Z,71.20
2018-03-26T18:10:37.355Z,71.50
2018-03-26T18:13:04.914Z,71.40
2018-03-26T18:15:32.526Z,71.90
2018-03-26T18:18:00.194Z,72.20
2018-03-26T18:20:27.781Z,72.30
2018-03-26T18:22:55.461Z,72.40
2018-03-26T18:25:23.065Z,72.80
2018-03-26T18:27:50.659Z,73.40
2018-03-26T18:30:18.261Z,73.60
2018-03-26T18:32:45.855Z,73.90
2018-03-26T18:35:13.414Z,74.50
2018-03-26T18:40:43.546Z,73.80
2018-03-26T18:43:11.135Z,76.00
2018-03-26T18:45:38.737Z,76.80
2018-03-26T18:48:06.323Z,77.80
2018-03-26T18:50:33.923Z,78.40
2018-03-26T18:53:01.522Z,79.50
2018-03-26T18:55:29.127Z,80.60
2018-03-26T18:57:56.747Z,80.80
2018-03-26T19:00:24.314Z,81.70
2018-03-26T19:02:51.963Z,82.40
2018-03-26T19:05:19.545Z,82.60
2018-03-26T19:07:47.583Z,84.00
2018-03-26T19:10:15.761Z,84.00
2018-03-26T19:12:43.405Z,84.20
2018-03-26T19:15:11.046Z,83.50
2018-03-26T19:17:38.715Z,85.20
2018-03-26T19:20:06.280Z,85.30
2018-03-26T19:22:33.934Z,85.60
2018-03-26T19:25:01.696Z,85.70
2018-03-26T19:27:29.299Z,86.50
2018-03-26T19:29:56.867Z,86.50
2018-03-26T19:32:24.575Z,85.90
2018-03-26T19:34:52.202Z,85.70
2018-03-26T19:37:19.815Z,85.50
2018-03-26T19:39:47.416Z,85.50
2018-03-26T19:42:15.031Z,85.40
2018-03-26T19:44:42.677Z,85.70
2018-03-26T19:47:10.320Z,85.60
2018-03-26T19:49:37.881Z,86.00
2018-03-26T19:52:05.489Z,86.50
2018-03-26T19:54:33.114Z,86.70
2018-03-26T19:57:00.776Z,86.70
2018-03-26T19:59:28.364Z,86.40
2018-03-26T20:01:55.980Z,86.90
2018-03-26T20:04:23.573Z,87.30
2018-03-26T20:06:51.183Z,87.80
2018-03-26T20:09:18.795Z,88.10
2018-03-26T20:11:46.387Z,88.00
2018-03-26T20:14:14.037Z,88.30
2018-03-26T20:16:41.657Z,88.40
2018-03-26T20:19:09.275Z,88.40
2018-03-26T20:21:36.832Z,88.50
2018-03-26T20:24:04.440Z,88.50
2018-03-26T20:26:32.031Z,88.80
2018-03-26T20:29:00.064Z,88.90
2018-03-26T20:31:27.662Z,88.80
2018-03-26T20:33:55.291Z,88.60
2018-03-26T20:36:22.891Z,88.50
2018-03-26T20:38:50.513Z,88.80
2018-03-26T20:41:18.087Z,88.80
2018-03-26T20:43:45.667Z,88.80
2018-03-26T20:46:13.567Z,88.80
2018-03-26T20:48:41.166Z,88.80
2018-03-26T20:51:08.763Z,89.90
2018-03-26T20:53:36.548Z,90.30
2018-03-26T20:56:04.128Z,90.30
2018-03-26T20:58:31.740Z,90.40
2018-03-26T21:00:59.367Z,90.60
2018-03-26T21:03:26.972Z,90.80
2018-03-26T21:05:54.555Z,90.70
2018-03-26T21:08:22.505Z,90.60
2018-03-26T21:10:50.107Z,90.70
2018-03-26T21:13:17.691Z,90.70
2018-03-26T21:15:45.323Z,90.70
2018-03-26T21:18:12.943Z,90.70
2018-03-26T21:20:40.523Z,90.80
2018-03-26T21:23:08.129Z,90.70
2018-03-26T21:25:35.728Z,90.80
2018-03-26T21:28:03.324Z,90.70
2018-03-26T21:30:30.948Z,90.70
2018-03-26T21:32:58.797Z,90.90
2018-03-26T21:35:26.396Z,90.80
2018-03-26T21:37:53.971Z,90.90
2018-03-26T21:40:21.594Z,90.70
2018-03-26T21:42:49.179Z,90.90
2018-03-26T21:45:16.784Z,90.70
2018-03-26T21:47:44.450Z,90.70
2018-03-26T21:50:12.067Z,90.60
2018-03-26T21:52:39.669Z,90.70
2018-03-26T21:55:07.344Z,90.70
2018-03-26T21:57:34.947Z,90.70
2018-03-26T22:00:02.565Z,90.70
2018-03-26T22:02:30.135Z,90.60
2018-03-26T22:04:57.973Z,90.60
2018-03-26T22:07:26.260Z,90.60
2018-03-26T22:09:53.926Z,90.80
2018-03-26T22:12:21.561Z,90.90
2018-03-26T22:14:49.178Z,90.90
2018-03-26T22:17:16.759Z,90.90
2018-03-26T22:19:44.339Z,90.80
2018-03-26T22:22:11.914Z,90.80
2018-03-26T22:24:39.555Z,90.80
2018-03-26T22:27:07.147Z,90.70
2018-03-26T22:29:34.997Z,90.50
2018-03-26T22:32:02.587Z,90.70
2018-03-26T22:34:30.164Z,90.50
2018-03-26T22:36:57.977Z,90.60
2018-03-26T22:39:25.568Z,90.90
2018-03-26T22:41:53.180Z,91.00
2018-03-26T22:44:20.758Z,91.10
2018-03-26T22:46:48.359Z,91.30
2018-03-26T22:49:15.972Z,91.40
2018-03-26T22:51:43.634Z,91.50
2018-03-26T22:54:11.238Z,91.50
2018-03-26T22:56:38.853Z,91.70
2018-03-26T22:59:06.427Z,91.50
2018-03-26T23:01:34.017Z,91.50
2018-03-26T23:04:01.607Z,91.70
2018-03-26T23:06:29.209Z,91.70
2018-03-26T23:08:56.869Z,91.60
2018-03-26T23:11:24.760Z,91.70
2018-03-26T23:13:52.373Z,91.70
2018-03-26T23:16:19.987Z,91.70
2018-03-26T23:18:47.850Z,91.70
2018-03-26T23:21:15.456Z,91.80
2018-03-26T23:23:43.059Z,91.80
2018-03-26T23:26:10.659Z,91.70
2018-03-26T23:28:38.223Z,91.60
2018-03-26T23:31:05.833Z,91.50
2018-03-26T23:33:33.467Z,91.40
2018-03-26T23:36:01.078Z,91.40
2018-03-26T23:38:28.741Z,91.50
2018-03-26T23:40:56.356Z,91.70
2018-03-26T23:43:24.333Z,91.80
2018-03-26T23:45:51.917Z,91.80
2018-03-26T23:48:19.514Z,91.80
2018-03-26T23:50:47.086Z,91.90
2018-03-26T23:53:14.695Z,91.80
2018-03-26T23:55:42.274Z,91.80
2018-03-26T23:58:09.850Z,91.70
